Time;durP1;ratioP1;P1;durP2;ratioP2;P2;SDS_P1;SDS_P2;PMS_P1;PMS_P2;Temp;Humidity;BMP_temperature;BMP_pressure;BME280_temperature;BME280_humidity;BME280_pressure;Samples;Min_cycle;Max_cycle;Signal;HPM_P1;HPM_P2
2022/05/24 00:02:20;;;;;;;6.47;4.15;;;;;;;14.86;69.04;100224.94;5077784;28;20119;-76
2022/05/24 00:04:46;;;;;;;4.82;3.90;;;;;;;14.53;68.46;100199.13;5074711;28;20121;-76
2022/05/24 00:07:12;;;;;;;4.10;3.03;;;;;;;14.56;68.23;100203.50;5077083;28;20052;-76
2022/05/24 00:09:38;;;;;;;5.97;3.28;;;;;;;14.63;68.22;100228.03;5079178;28;20034;-78
2022/05/24 00:12:04;;;;;;;7.60;2.97;;;;;;;14.57;68.19;100226.41;5039528;28;20050;-76
2022/05/24 00:17:14;;;;;;;5.93;3.63;;;;;;;14.68;67.34;100205.03;5075948;28;20264;-76
2022/05/24 00:19:39;;;;;;;5.25;3.78;;;;;;;14.84;67.16;100222.31;5053726;28;20423;-76
2022/05/24 00:22:05;;;;;;;4.38;3.08;;;;;;;14.64;67.45;100216.59;5010976;28;20096;-79
2022/05/24 00:24:31;;;;;;;5.10;3.35;;;;;;;14.36;67.20;100181.00;5052864;28;20043;-76
2022/05/24 00:26:58;;;;;;;7.82;3.22;;;;;;;14.96;65.87;100253.78;5050164;28;20052;-76
2022/05/24 00:29:24;;;;;;;7.90;3.50;;;;;;;14.58;65.72;100199.06;5047057;28;20074;-78
2022/05/24 00:31:56;;;;;;;7.05;3.75;;;;;;;14.70;66.87;100248.13;5046713;28;20382;-76
2022/05/24 00:34:22;;;;;;;6.33;2.40;;;;;;;14.75;65.75;100199.63;5043547;28;20160;-76
2022/05/24 00:36:47;;;;;;;5.18;3.35;;;;;;;14.56;65.73;100204.41;5047639;28;20111;-76
2022/05/24 00:39:13;;;;;;;9.30;3.35;;;;;;;14.73;65.26;100195.28;5042965;28;20048;-75
2022/05/24 00:41:50;;;;;;;8.77;3.30;;;;;;;14.60;65.81;100197.28;5029314;28;20068;-76
2022/05/24 00:44:42;;;;;;;6.30;3.47;;;;;;;14.61;65.88;100221.91;5029996;28;20163;-77
2022/05/24 00:47:23;;;;;;;7.03;3.78;;;;;;;14.81;66.48;100262.00;5026451;28;20052;-76
2022/05/24 00:49:59;;;;;;;10.05;4.13;;;;;;;14.76;66.25;100258.59;5027684;28;20551;-76
2022/05/24 00:52:57;;;;;;;7.78;3.88;;;;;;;14.51;66.18;100197.44;5032339;28;20122;-75
2022/05/24 00:55:25;;;;;;;7.50;3.40;;;;;;;14.65;67.65;100253.50;5016879;28;20052;-76
2022/05/24 00:58:14;;;;;;;10.75;4.93;;;;;;;14.55;67.72;100221.13;5043521;28;20041;-76
2022/05/24 01:00:40;;;;;;;8.23;3.88;;;;;;;14.33;68.66;100223.28;5034262;28;20059;-76
2022/05/24 01:03:07;;;;;;;7.70;4.47;;;;;;;14.57;67.79;100198.22;5029375;28;20135;-75
2022/05/24 01:05:34;;;;;;;5.38;3.35;;;;;;;14.18;68.13;100193.66;5014410;28;20048;-75
2022/05/24 01:08:00;;;;;;;8.35;4.25;;;;;;;14.72;67.35;100247.22;5034110;28;20040;-75
2022/05/24 01:10:49;;;;;;;7.97;4.40;;;;;;;14.37;67.66;100218.81;5054279;28;20112;-78
2022/05/24 01:13:23;;;;;;;10.68;4.75;;;;;;;13.93;68.24;100199.38;5036063;28;20117;-78
2022/05/24 01:15:53;;;;;;;5.95;4.15;;;;;;;13.89;68.20;100181.88;5037978;28;20032;-76
2022/05/24 01:18:23;;;;;;;21.88;10.60;;;;;;;14.20;68.35;100248.16;5034417;28;20514;-76
2022/05/24 01:21:00;;;;;;;5.25;3.90;;;;;;;14.10;69.60;100243.94;5060323;28;20137;-78
2022/05/24 01:23:44;;;;;;;7.72;4.57;;;;;;;13.93;70.42;100221.34;5053696;28;20048;-78
2022/05/24 01:26:21;;;;;;;9.43;4.78;;;;;;;13.42;71.61;100189.66;5071043;28;20048;-77
2022/05/24 01:28:57;;;;;;;10.73;6.63;;;;;;;13.37;72.29;100193.22;5051131;28;20094;-79
2022/05/24 01:31:25;;;;;;;14.50;7.70;;;;;;;13.78;71.78;100229.50;5036812;28;20053;-76
2022/05/24 01:36:40;;;;;;;9.82;5.43;;;;;;;13.46;72.83;100185.19;5059194;28;20055;-78
2022/05/24 01:39:09;;;;;;;8.18;5.60;;;;;;;13.25;72.11;100174.06;5046889;28;20056;-76
2022/05/24 01:41:44;;;;;;;8.95;5.47;;;;;;;13.26;71.90;100169.66;5067771;28;20047;-76
2022/05/24 01:44:18;;;;;;;13.43;6.15;;;;;;;13.84;71.09;100239.09;5069210;28;20123;-75
2022/05/24 01:46:46;;;;;;;8.45;5.72;;;;;;;13.80;69.49;100177.63;5051138;28;20048;-75
2022/05/24 01:49:23;;;;;;;9.10;4.72;;;;;;;13.67;69.06;100187.50;5039605;28;21370;-76
2022/05/24 01:52:00;;;;;;;7.05;4.20;;;;;;;13.86;67.99;100189.81;5069222;28;20049;-74
2022/05/24 01:54:30;;;;;;;7.88;4.63;;;;;;;14.36;66.50;100212.66;5050133;28;20048;-74
2022/05/24 01:57:02;;;;;;;8.05;5.13;;;;;;;14.60;67.48;100228.09;5047260;28;20050;-76
2022/05/24 01:59:29;;;;;;;4.90;3.72;;;;;;;14.49;65.96;100230.91;5046317;28;20128;-76
2022/05/24 02:01:59;;;;;;;5.75;3.92;;;;;;;14.46;65.78;100241.53;5071009;28;20052;-76
2022/05/24 02:04:29;;;;;;;6.75;4.20;;;;;;;14.09;65.84;100187.66;5056480;28;20054;-76
2022/05/24 02:07:08;;;;;;;6.63;4.25;;;;;;;14.26;65.44;100190.00;5050019;28;20047;-75
2022/05/24 02:09:44;;;;;;;8.95;4.82;;;;;;;13.98;66.58;100178.19;5072177;28;20036;-76
2022/05/24 02:12:18;;;;;;;7.13;4.72;;;;;;;14.14;66.60;100206.91;5067131;28;20041;-75
2022/05/24 02:14:52;;;;;;;7.97;4.43;;;;;;;14.14;65.81;100204.28;5052354;28;20064;-76
2022/05/24 02:17:22;;;;;;;10.27;6.13;;;;;;;14.14;66.54;100180.53;5034977;28;20053;-75
2022/05/24 02:19:52;;;;;;;10.77;6.05;;;;;;;14.35;65.95;100244.34;5063606;28;20049;-76
2022/05/24 02:22:22;;;;;;;13.00;6.60;;;;;;;13.66;67.08;100193.66;5066922;28;20094;-77
2022/05/24 02:24:58;;;;;;;18.73;6.32;;;;;;;14.00;66.73;100208.94;5052910;28;20059;-76
2022/05/24 02:27:25;;;;;;;8.75;5.00;;;;;;;14.21;66.56;100215.59;5046897;28;20036;-76
2022/05/24 02:29:54;;;;;;;5.72;3.78;;;;;;;14.26;66.16;100237.50;5048526;28;20128;-77
2022/05/24 02:32:19;;;;;;;6.15;3.40;;;;;;;14.30;66.76;100218.03;5051595;28;20048;-76
2022/05/24 02:34:45;;;;;;;9.00;3.40;;;;;;;14.19;65.85;100213.84;5066686;28;20075;-76
2022/05/24 02:37:11;;;;;;;6.60;3.45;;;;;;;13.87;66.30;100196.84;5056191;28;20021;-77
2022/05/24 02:42:22;;;;;;;7.22;3.53;;;;;;;14.14;65.86;100206.03;5067211;28;20890;-76
2022/05/24 02:44:49;;;;;;;7.00;3.35;;;;;;;14.28;65.55;100200.50;5051242;28;20056;-77
2022/05/24 02:47:17;;;;;;;7.20;3.15;;;;;;;14.13;66.60;100230.69;5049774;28;20136;-76
2022/05/24 02:49:44;;;;;;;4.85;3.30;;;;;;;13.43;68.45;100201.94;5071077;28;20594;-76
2022/05/24 02:52:09;;;;;;;5.82;3.67;;;;;;;13.69;69.25;100253.38;5046230;28;20028;-76
2022/05/24 02:54:38;;;;;;;8.48;4.00;;;;;;;13.43;69.75;100246.72;5074059;28;20032;-77
2022/05/24 02:57:05;;;;;;;7.57;4.28;;;;;;;13.45;70.22;100242.31;5065866;28;20044;-79
2022/05/24 02:59:32;;;;;;;8.55;4.35;;;;;;;13.34;69.78;100204.69;5068271;28;20055;-77
2022/05/24 03:01:57;;;;;;;6.10;3.88;;;;;;;13.54;69.70;100238.69;5051000;28;20094;-75
2022/05/24 03:04:23;;;;;;;8.10;4.57;;;;;;;13.62;70.08;100271.06;5036630;28;20036;-77
2022/05/24 03:09:36;;;;;;;7.35;3.35;;;;;;;13.63;69.34;100213.94;5069037;28;20562;-76
2022/05/24 03:15:07;;;;;;;8.80;5.00;;;;;;;13.50;70.08;100256.28;5068596;28;20051;-77
2022/05/24 03:17:33;;;;;;;11.48;4.63;;;;;;;13.49;69.69;100204.47;5031224;28;20076;-76
2022/05/24 03:19:58;;;;;;;9.52;4.57;;;;;;;13.55;69.44;100214.03;5064629;28;20487;-76
2022/05/24 03:22:24;;;;;;;17.77;4.82;;;;;;;13.71;69.72;100210.28;5048129;28;20052;-76
2022/05/24 03:24:53;;;;;;;6.82;4.50;;;;;;;14.10;68.69;100255.38;5071694;28;20028;-76
2022/05/24 03:27:22;;;;;;;7.45;4.28;;;;;;;13.86;68.76;100221.47;5071262;28;20101;-77
2022/05/24 03:29:48;;;;;;;9.63;4.80;;;;;;;13.87;68.75;100237.28;5055267;28;20049;-79
2022/05/24 03:32:16;;;;;;;7.15;4.25;;;;;;;13.27;70.34;100226.72;5067555;28;20791;-75
2022/05/24 03:34:45;;;;;;;12.55;4.30;;;;;;;13.51;69.99;100239.59;5039124;28;20083;-75
2022/05/24 03:37:14;;;;;;;13.65;3.95;;;;;;;13.44;70.17;100221.28;5044182;28;20104;-77
2022/05/24 03:39:40;;;;;;;6.82;3.80;;;;;;;13.31;71.12;100225.84;5057177;28;20067;-75
2022/05/24 03:42:09;;;;;;;6.40;4.28;;;;;;;13.36;71.10;100228.41;5051538;28;20043;-77
2022/05/24 03:44:35;;;;;;;10.07;4.53;;;;;;;13.49;70.52;100222.06;5072911;28;20037;-76
2022/05/24 03:47:01;;;;;;;7.72;4.53;;;;;;;13.75;70.42;100237.47;5052861;28;20433;-75
2022/05/24 03:49:27;;;;;;;11.35;4.35;;;;;;;13.57;69.92;100230.72;5072444;28;21098;-75
2022/05/24 03:51:52;;;;;;;7.82;4.50;;;;;;;13.75;70.39;100233.97;5053572;28;20531;-75
2022/05/24 03:54:18;;;;;;;9.88;4.70;;;;;;;13.72;70.15;100233.13;5076580;28;20494;-75
2022/05/24 03:58:00;;;;;;;13.32;5.55;;;;;;;13.99;69.90;100272.28;5050774;28;20136;-78
2022/05/24 03:59:31;;;;;;;8.85;3.85;;;;;;;14.05;70.20;100274.81;5054622;28;20101;-75
2022/05/24 04:02:00;;;;;;;8.90;5.40;;;;;;;13.79;70.33;100230.38;5046378;28;20110;-77
2022/05/24 04:04:27;;;;;;;6.50;4.22;;;;;;;13.97;69.64;100227.44;5050906;28;20118;-77
2022/05/24 04:06:53;;;;;;;9.88;4.32;;;;;;;14.13;69.42;100238.59;5067977;28;20037;-78
2022/05/24 04:09:18;;;;;;;7.60;4.47;;;;;;;14.21;68.77;100251.66;5056864;28;20043;-78
2022/05/24 04:11:44;;;;;;;7.85;4.60;;;;;;;14.08;68.83;100241.31;5071205;28;20764;-78
2022/05/24 04:14:13;;;;;;;12.80;4.93;;;;;;;13.87;69.32;100234.63;5068433;28;20469;-78
2022/05/24 04:16:38;;;;;;;6.30;4.05;;;;;;;14.40;69.33;100297.97;5070938;28;20040;-76
2022/05/24 04:19:04;;;;;;;8.20;4.35;;;;;;;14.21;68.94;100242.00;5050160;28;20086;-77
2022/05/24 04:21:37;;;;;;;10.40;4.05;;;;;;;14.26;69.45;100255.97;5030218;28;20052;-78
2022/05/24 04:24:04;;;;;;;7.32;4.45;;;;;;;13.92;69.42;100248.63;5065372;28;20044;-77
2022/05/24 04:26:30;;;;;;;7.65;4.55;;;;;;;14.14;69.67;100253.53;5051722;28;20102;-75
2022/05/24 04:28:58;;;;;;;6.72;4.72;;;;;;;14.12;69.93;100308.13;5038180;28;20045;-75
2022/05/24 04:31:27;;;;;;;10.80;4.05;;;;;;;14.52;69.06;100281.91;5049612;28;20052;-77
2022/05/24 04:33:52;;;;;;;9.57;4.80;;;;;;;14.51;68.75;100297.75;5051328;28;20051;-76
2022/05/24 04:36:18;;;;;;;6.25;3.60;;;;;;;14.47;67.65;100248.53;5068401;28;20078;-76
2022/05/24 04:38:47;;;;;;;9.20;3.60;;;;;;;14.36;68.20;100262.81;5065045;28;20037;-77
2022/05/24 04:43:57;;;;;;;7.13;4.07;;;;;;;14.51;67.46;100252.88;5051342;28;20152;-77
2022/05/24 04:46:24;;;;;;;6.72;4.35;;;;;;;14.76;67.83;100272.66;5069691;28;20104;-74
2022/05/24 04:48:53;;;;;;;7.10;3.83;;;;;;;14.97;66.91;100281.06;5074037;28;20039;-75
2022/05/24 04:51:18;;;;;;;4.45;3.30;;;;;;;15.14;66.88;100257.78;5050704;28;20075;-75
2022/05/24 04:53:44;;;;;;;14.55;4.25;;;;;;;15.12;66.85;100264.03;5047964;28;20072;-76
2022/05/24 04:56:11;;;;;;;6.55;3.92;;;;;;;15.25;67.79;100265.50;5071165;28;20110;-75
2022/05/24 04:58:36;;;;;;;6.28;4.00;;;;;;;15.44;65.72;100267.75;5037365;28;20077;-77
2022/05/24 05:01:04;;;;;;;7.20;3.58;;;;;;;15.81;65.46;100312.78;5050223;28;20549;-76
2022/05/24 05:03:30;;;;;;;6.13;3.38;;;;;;;15.61;64.49;100270.88;5050053;28;20033;-75
2022/05/24 05:05:56;;;;;;;4.82;3.30;;;;;;;15.54;64.08;100256.91;5050481;28;20092;-77
2022/05/24 05:08:24;;;;;;;6.15;3.08;;;;;;;15.78;63.59;100260.81;5067400;28;20052;-76
2022/05/24 05:10:50;;;;;;;13.48;3.60;;;;;;;16.10;62.96;100260.94;5051869;28;20518;-76
2022/05/24 05:13:16;;;;;;;4.78;2.75;;;;;;;16.23;62.79;100295.00;5071107;28;20056;-76
2022/05/24 05:15:43;;;;;;;7.43;3.33;;;;;;;16.42;62.42;100300.69;5068768;28;20380;-76
2022/05/24 05:18:11;;;;;;;8.48;3.92;;;;;;;16.64;61.54;100277.13;5049115;28;20451;-76
2022/05/24 05:20:39;;;;;;;11.75;4.88;;;;;;;16.98;61.26;100292.16;5066704;28;20503;-75
2022/05/24 05:23:23;;;;;;;14.95;4.25;;;;;;;16.96;59.66;100282.50;5067342;28;20135;-76
2022/05/24 05:25:48;;;;;;;15.52;5.47;;;;;;;17.26;59.97;100320.53;5066655;28;20055;-78
2022/05/24 05:28:16;;;;;;;7.32;4.70;;;;;;;17.40;61.26;100313.03;5048769;28;20056;-79
2022/05/24 05:33:27;;;;;;;13.40;4.65;;;;;;;17.11;60.31;100313.00;5066470;28;20074;-77
2022/05/24 05:35:53;;;;;;;13.35;6.72;;;;;;;17.78;60.10;100305.69;5037260;28;20059;-76
2022/05/24 05:38:22;;;;;;;16.20;4.72;;;;;;;17.44;59.46;100288.16;5073417;28;20048;-76
2022/05/24 05:40:53;;;;;;;7.95;3.42;;;;;;;17.50;58.02;100289.75;5071594;28;20056;-76
2022/05/24 05:43:24;;;;;;;14.05;3.83;;;;;;;18.06;57.72;100320.75;5070733;28;20071;-75
2022/05/24 05:45:54;;;;;;;6.20;4.10;;;;;;;17.46;57.28;100277.47;5057854;28;20056;-76
2022/05/24 05:48:20;;;;;;;11.77;4.40;;;;;;;18.21;56.49;100300.78;5071340;28;20063;-76
2022/05/24 05:50:47;;;;;;;10.07;4.47;;;;;;;18.47;56.02;100307.88;5050676;28;20052;-76
2022/05/24 05:53:17;;;;;;;18.25;2.60;;;;;;;17.99;55.47;100276.75;5055113;28;20124;-76
2022/05/24 05:55:45;;;;;;;7.90;4.40;;;;;;;18.05;54.89;100257.94;5074928;28;20496;-77
2022/05/24 05:58:12;;;;;;;6.30;2.80;;;;;;;18.42;54.33;100307.16;5057786;28;20036;-75
2022/05/24 06:00:41;;;;;;;18.73;4.85;;;;;;;18.68;54.29;100266.41;5055264;28;20119;-76
2022/05/24 06:03:10;;;;;;;7.70;4.22;;;;;;;18.24;54.49;100301.56;5038769;28;20695;-75
2022/05/24 06:05:37;;;;;;;8.30;3.78;;;;;;;18.23;54.54;100294.50;5053558;28;20500;-76
2022/05/24 06:08:03;;;;;;;9.25;4.22;;;;;;;18.33;57.00;100298.63;5033801;28;20048;-76
2022/05/24 06:10:34;;;;;;;12.82;2.28;;;;;;;18.16;55.58;100277.03;5052708;28;20087;-76
2022/05/24 06:13:00;;;;;;;14.73;2.88;;;;;;;18.57;54.76;100272.13;5062148;28;20096;-78
2022/05/24 06:15:28;;;;;;;6.90;3.42;;;;;;;19.03;53.79;100326.31;5068803;28;21347;-77
2022/05/24 06:17:57;;;;;;;5.15;2.90;;;;;;;18.56;54.65;100307.56;5043587;28;20041;-76
2022/05/24 06:20:28;;;;;;;14.93;4.80;;;;;;;18.06;56.54;100284.44;5070685;28;20052;-76
2022/05/24 06:22:55;;;;;;;9.82;3.25;;;;;;;18.40;54.85;100285.09;5056542;28;20056;-77
2022/05/24 06:25:27;;;;;;;23.83;4.45;;;;;;;18.42;55.14;100291.22;5063771;28;20060;-79
2022/05/24 06:27:55;;;;;;;15.00;3.00;;;;;;;18.66;53.47;100276.22;5064691;28;20048;-76
2022/05/24 06:30:22;;;;;;;7.88;3.65;;;;;;;19.24;52.95;100308.69;5067503;28;20710;-77
2022/05/24 06:32:48;;;;;;;4.15;2.47;;;;;;;19.35;53.90;100310.94;5063370;28;20040;-75
2022/05/24 06:35:14;;;;;;;7.50;3.08;;;;;;;19.57;54.29;100306.56;5053260;28;20044;-75
2022/05/24 06:37:41;;;;;;;8.48;2.50;;;;;;;19.09;56.47;100278.22;5050207;28;20049;-77
2022/05/24 06:40:11;;;;;;;8.95;3.50;;;;;;;20.00;54.42;100277.38;5053833;28;20028;-72
2022/05/24 06:42:37;;;;;;;11.95;4.00;;;;;;;20.09;56.84;100277.00;5065522;28;20115;-73
2022/05/24 06:45:04;;;;;;;7.25;3.15;;;;;;;20.32;58.63;100269.81;5061289;28;20075;-71
2022/05/24 06:47:30;;;;;;;4.20;2.33;;;;;;;20.81;56.09;100310.38;5068104;28;20132;-72
2022/05/24 06:49:56;;;;;;;5.88;2.53;;;;;;;21.24;54.76;100313.81;5068043;28;20051;-71
2022/05/24 06:52:22;;;;;;;3.65;1.92;;;;;;;21.11;54.38;100277.94;5066690;28;20166;-72
2022/05/24 06:54:49;;;;;;;4.85;2.88;;;;;;;20.76;49.72;100288.38;5045045;28;20495;-71
2022/05/24 06:57:14;;;;;;;5.43;2.50;;;;;;;21.13;53.17;100305.41;5045919;28;20573;-71
2022/05/24 07:02:27;;;;;;;7.95;2.25;;;;;;;20.82;52.66;100282.78;5060342;28;20617;-71
2022/05/24 07:05:04;;;;;;;5.65;2.78;;;;;;;20.69;49.84;100277.09;5062595;28;20044;-70
2022/05/24 07:07:33;;;;;;;5.80;3.17;;;;;;;21.05;48.86;100327.09;5045402;28;20483;-73
2022/05/24 07:10:09;;;;;;;6.35;2.75;;;;;;;19.30;52.03;100312.94;5064709;28;20049;-74
2022/05/24 07:12:46;;;;;;;9.60;3.22;;;;;;;18.78;52.17;100315.72;5072915;28;20039;-75
2022/05/24 07:15:13;;;;;;;8.38;3.67;;;;;;;18.88;51.83;100295.84;5047068;28;20070;-84
2022/05/24 07:17:41;;;;;;;5.95;2.50;;;;;;;19.07;51.22;100285.38;5049073;28;20036;-77
2022/05/24 07:20:11;;;;;;;6.13;2.47;;;;;;;19.31;51.05;100309.31;5044202;28;20037;-78
2022/05/24 07:22:43;;;;;;;12.38;2.10;;;;;;;19.44;51.08;100304.41;5037390;28;20127;-72
2022/05/24 07:25:10;;;;;;;15.77;3.33;;;;;;;19.51;51.58;100256.22;5054112;28;20037;-74
2022/05/24 07:27:36;;;;;;;14.32;3.45;;;;;;;19.58;49.59;100263.03;5052803;28;20582;-75
2022/05/24 07:30:04;;;;;;;14.45;3.58;;;;;;;19.61;49.13;100268.22;5038144;28;20103;-75
2022/05/24 07:32:31;;;;;;;6.30;2.22;;;;;;;19.68;49.61;100265.31;5039819;28;20059;-76
2022/05/24 07:34:59;;;;;;;9.43;1.92;;;;;;;19.49;50.13;100255.41;5035177;28;20390;-72
2022/05/24 07:37:26;;;;;;;6.40;2.53;;;;;;;19.92;51.05;100236.84;5058505;28;20385;-74
2022/05/24 07:45:48;;;;;;;5.80;2.50;;;;;;;20.13;48.63;100291.03;5038194;28;20051;-77
2022/05/24 07:48:13;;;;;;;3.38;2.00;;;;;;;19.84;50.32;100306.41;5054802;28;20053;-77
2022/05/24 07:50:41;;;;;;;4.50;2.47;;;;;;;20.33;49.96;100275.09;5038104;28;20389;-72
2022/05/24 07:53:08;;;;;;;7.47;2.97;;;;;;;20.82;49.61;100282.78;5056435;28;20041;-72
2022/05/24 07:55:34;;;;;;;5.03;2.75;;;;;;;19.98;48.36;100248.13;5055054;28;20082;-77
2022/05/24 07:57:59;;;;;;;5.13;3.05;;;;;;;20.54;50.23;100275.09;5036001;28;20032;-73
2022/05/24 08:00:25;;;;;;;4.72;2.38;;;;;;;20.75;48.89;100234.19;5036484;28;20047;-77
2022/05/24 08:02:52;;;;;;;5.30;2.28;;;;;;;20.65;47.37;100260.41;5055395;28;20048;-76
2022/05/24 08:05:22;;;;;;;4.65;2.33;;;;;;;20.58;47.12;100261.59;5052324;28;20155;-75
2022/05/24 08:07:50;;;;;;;5.13;2.85;;;;;;;20.59;48.34;100257.13;5039694;28;20615;-74
2022/05/24 08:10:17;;;;;;;3.53;1.92;;;;;;;20.77;48.48;100275.00;5038666;28;21279;-74
2022/05/24 08:12:44;;;;;;;7.63;2.85;;;;;;;20.76;47.31;100288.38;5057603;28;20024;-82
2022/05/24 08:15:11;;;;;;;11.63;8.88;;;;;;;21.22;47.17;100260.47;5015046;28;20057;-76
2022/05/24 08:17:37;;;;;;;13.13;9.93;;;;;;;21.69;46.94;100259.19;5053873;28;20056;-78
2022/05/24 08:20:04;;;;;;;5.88;2.80;;;;;;;21.39;46.78;100251.66;5041433;28;20044;-74
2022/05/24 08:22:30;;;;;;;11.95;2.80;;;;;;;20.08;47.51;100245.06;5058637;28;20071;-76
2022/05/24 08:25:02;;;;;;;11.13;4.53;;;;;;;21.15;46.39;100268.84;5075414;28;20063;-79
2022/05/24 08:27:30;;;;;;;5.10;2.97;;;;;;;21.57;46.78;100266.00;5072859;28;20045;-75
2022/05/24 08:29:57;;;;;;;5.82;2.20;;;;;;;21.47;44.89;100246.88;5050753;28;20056;-78
2022/05/24 08:32:30;;;;;;;17.98;11.52;;;;;;;21.79;47.68;100228.41;5066330;28;20052;-77
2022/05/24 08:34:55;;;;;;;;;;;;;;;22.27;46.39;100259.00;5049823;28;20051;-76
2022/05/24 08:37:22;;;;;;;8.05;2.78;;;;;;;21.50;45.08;100232.53;5048056;28;19917;-76
2022/05/24 08:39:47;;;;;;;5.93;3.00;;;;;;;22.54;46.70;100254.00;5070829;28;20484;-76
2022/05/24 08:42:37;;;;;;;10.23;3.65;;;;;;;21.87;45.39;100246.75;5069330;28;20059;-76
2022/05/24 08:50:57;;;;;;;5.38;2.78;;;;;;;21.37;45.17;100245.53;5071465;28;20093;-77
2022/05/24 08:53:46;;;;;;;7.38;4.57;;;;;;;22.44;45.71;100235.88;5051835;28;20130;-78
2022/05/24 08:56:45;;;;;;;9.75;3.00;;;;;;;21.52;44.64;100248.44;5050606;28;20135;-77
2022/05/24 08:59:24;;;;;;;9.50;5.20;;;;;;;21.62;48.17;100250.59;5007397;28;20048;-83
2022/05/24 09:01:51;;;;;;;7.18;4.22;;;;;;;21.61;44.42;100283.59;5050825;28;20114;-76
2022/05/24 09:04:17;;;;;;;9.75;5.22;;;;;;;21.67;44.53;100285.09;5052599;28;20056;-83
2022/05/24 09:06:59;;;;;;;12.50;5.63;;;;;;;21.65;46.83;100234.44;5051556;28;20038;-76
2022/05/24 09:09:54;;;;;;;10.90;5.43;;;;;;;21.96;45.00;100289.06;5032996;28;20388;-78
2022/05/24 09:12:47;;;;;;;10.55;5.40;;;;;;;22.02;44.70;100304.75;5075027;28;20667;-79
2022/05/24 09:15:43;;;;;;;15.10;6.13;;;;;;;21.78;44.94;100242.72;5049161;28;20515;-76
2022/05/24 09:18:20;;;;;;;8.02;2.75;;;;;;;21.28;46.11;100278.88;5033567;28;20063;-80
2022/05/24 09:20:57;;;;;;;11.02;5.95;;;;;;;22.15;48.52;100289.00;5061497;28;20419;-82
2022/05/24 09:23:48;;;;;;;11.38;5.18;;;;;;;21.81;47.15;100217.66;5071747;28;20049;-77
2022/05/24 09:26:35;;;;;;;7.00;3.58;;;;;;;21.06;46.21;100236.31;5058167;28;20035;-79
2022/05/24 09:29:17;;;;;;;5.88;3.55;;;;;;;21.76;45.73;100249.09;5059550;28;20086;-78
2022/05/24 09:31:49;;;;;;;8.73;4.65;;;;;;;22.10;44.79;100256.25;5074944;28;20048;-81
2022/05/24 09:34:17;;;;;;;5.32;2.90;;;;;;;23.31;43.67;100291.91;5069997;28;20120;-88
2022/05/24 09:37:00;;;;;;;7.05;3.97;;;;;;;23.58;43.42;100281.50;5074766;28;20032;-78
2022/05/24 09:39:41;;;;;;;6.15;3.03;;;;;;;23.40;44.26;100253.91;5070933;28;20051;-79
2022/05/24 09:42:10;;;;;;;7.28;3.80;;;;;;;24.05;43.13;100242.22;5071283;28;20082;-79
2022/05/24 09:45:02;;;;;;;16.25;6.93;;;;;;;23.23;42.15;100235.25;5071532;28;20040;-79
2022/05/24 09:47:39;;;;;;;7.55;3.47;;;;;;;23.56;43.37;100259.28;5071197;28;20055;-80
2022/05/24 09:50:42;;;;;;;4.38;2.63;;;;;;;23.20;43.31;100292.47;5068238;28;20094;-85
2022/05/24 09:53:14;;;;;;;7.47;3.95;;;;;;;24.60;43.20;100301.50;5067854;28;20806;-83
2022/05/24 09:55:45;;;;;;;11.60;6.20;;;;;;;24.73;40.34;100309.69;5067484;28;20092;-81
2022/05/24 09:58:27;;;;;;;4.88;2.60;;;;;;;24.77;41.67;100313.03;5068699;28;20454;-82
2022/05/24 10:01:12;;;;;;;13.00;8.02;;;;;;;25.25;40.97;100301.13;5051385;28;20677;-78
2022/05/24 10:03:48;;;;;;;12.75;5.38;;;;;;;24.92;39.85;100281.72;5072641;28;20096;-78
2022/05/24 10:06:32;;;;;;;30.80;7.70;;;;;;;24.96;40.55;100296.66;5043448;28;20614;-82
2022/05/24 10:09:32;;;;;;;11.77;5.68;;;;;;;23.59;39.64;100243.88;5049875;28;20059;-77
2022/05/24 10:12:19;;;;;;;11.88;6.68;;;;;;;24.68;39.82;100259.91;5045237;28;20135;-80
2022/05/24 10:15:03;;;;;;;10.13;5.70;;;;;;;24.44;39.96;100238.97;5069219;28;20044;-77
2022/05/24 10:17:36;;;;;;;9.57;4.78;;;;;;;23.03;40.26;100185.50;5050036;28;20060;-79
2022/05/24 10:20:24;;;;;;;8.85;4.82;;;;;;;24.19;41.80;100237.75;5067347;28;20080;-77
2022/05/24 10:22:59;;;;;;;33.92;15.07;;;;;;;25.14;37.85;100252.53;5066874;28;20499;-76
2022/05/24 10:25:44;;;;;;;19.15;8.50;;;;;;;24.07;41.09;100222.41;5067867;28;20036;-75
2022/05/24 10:28:41;;;;;;;40.95;16.27;;;;;;;25.49;39.61;100273.66;5052858;28;20090;-76
2022/05/24 10:31:50;;;;;;;21.52;12.55;;;;;;;24.57;38.27;100272.19;5055419;28;20035;-77
2022/05/24 10:41:08;;;;;;;23.17;12.90;;;;;;;23.92;40.88;100244.75;5067067;28;20051;-76
2022/05/24 10:44:13;;;;;;;34.00;14.82;;;;;;;24.74;38.92;100287.25;5037441;28;20135;-76
2022/05/24 10:47:16;;;;;;;50.55;18.10;;;;;;;23.88;42.58;100273.56;5033008;28;20080;-76
2022/05/24 10:50:01;;;;;;;74.05;22.15;;;;;;;24.14;42.04;100261.31;5046968;28;20045;-75
2022/05/24 10:52:47;;;;;;;65.85;20.77;;;;;;;25.22;40.35;100255.66;5041035;28;20047;-76
2022/05/24 10:55:36;;;;;;;59.80;21.20;;;;;;;25.07;40.75;100221.69;5059643;28;20035;-81
2022/05/24 10:58:30;;;;;;;64.38;22.30;;;;;;;24.29;40.38;100221.13;5051235;28;20044;-78
2022/05/24 11:01:51;;;;;;;77.38;19.23;;;;;;;25.64;40.34;100223.44;5031063;28;20499;-79
2022/05/24 11:04:41;;;;;;;46.33;15.18;;;;;;;25.68;39.70;100220.44;5057295;28;20159;-76
2022/05/24 11:07:14;;;;;;;61.67;19.98;;;;;;;25.60;39.33;100211.16;5069780;28;20059;-84
2022/05/24 11:10:10;;;;;;;58.60;19.05;;;;;;;25.36;38.12;100203.75;5071634;28;20111;-84
2022/05/24 11:12:42;;;;;;;42.50;16.05;;;;;;;25.14;38.97;100243.63;5039431;28;20131;-83
2022/05/24 11:15:17;;;;;;;50.97;19.42;;;;;;;23.95;38.76;100116.78;5073396;28;20080;-80
2022/05/24 11:17:45;;;;;;;55.63;18.25;;;;;;;24.35;39.70;100183.19;5058900;28;20493;-85
2022/05/24 11:20:14;;;;;;;57.00;19.98;;;;;;;23.93;40.08;100185.69;5059930;28;20044;-80
2022/05/24 11:23:14;;;;;;;24.23;9.98;;;;;;;23.32;41.49;100179.38;5066920;28;20057;-80
2022/05/24 11:25:50;;;;;;;55.42;19.10;;;;;;;24.09;39.42;100180.28;5051394;28;20049;-81
2022/05/24 11:28:32;;;;;;;43.30;17.30;;;;;;;24.04;41.03;100198.44;5051374;28;20402;-83
2022/05/24 11:31:41;;;;;;;26.38;10.80;;;;;;;24.38;40.95;100169.59;5052150;28;20037;-83
2022/05/24 11:34:24;;;;;;;30.40;12.35;;;;;;;24.44;43.34;100188.00;5052550;28;20410;-82
2022/05/24 11:37:24;;;;;;;23.80;12.35;;;;;;;23.98;41.25;100138.03;5054261;28;20315;-83
2022/05/24 11:39:53;;;;;;;31.00;10.93;;;;;;;24.04;41.49;100152.88;5031343;28;20132;-80
2022/05/24 11:42:29;;;;;;;12.23;5.75;;;;;;;23.78;40.88;100127.63;5048983;28;20109;-81
2022/05/24 11:44:57;;;;;;;6.13;3.10;;;;;;;23.75;41.13;100142.09;5028527;28;20048;-77
2022/05/24 11:47:41;;;;;;;15.02;6.38;;;;;;;23.70;41.98;100124.53;5031425;28;20124;-77
2022/05/24 11:50:36;;;;;;;9.38;3.63;;;;;;;23.38;41.12;100109.38;5029745;28;20041;-77
2022/05/24 11:53:16;;;;;;;12.02;3.25;;;;;;;23.93;43.83;100171.44;5027843;28;20372;-76
2022/05/24 11:55:45;;;;;;;17.08;5.95;;;;;;;23.26;41.45;100101.22;5055355;28;20053;-76
2022/05/24 11:58:37;;;;;;;12.90;4.55;;;;;;;23.49;42.35;100105.22;5048865;28;20039;-77
2022/05/24 12:01:37;;;;;;;10.60;4.70;;;;;;;23.41;43.07;100123.53;5040672;28;20036;-76
2022/05/24 12:10:24;;;;;;;6.80;3.55;;;;;;;23.15;42.56;100042.91;5027052;28;20064;-77
2022/05/24 12:13:09;;;;;;;8.75;3.83;;;;;;;22.74;42.32;100030.94;5051182;28;20115;-77
2022/05/24 12:15:43;;;;;;;3.33;1.67;;;;;;;23.04;44.46;100040.88;5039495;28;20037;-77
2022/05/24 12:18:11;;;;;;;12.75;4.28;;;;;;;22.87;43.01;100033.78;5048144;28;20360;-77
2022/05/24 12:20:39;;;;;;;4.82;3.03;;;;;;;23.20;43.52;100053.34;5028785;28;20056;-77
2022/05/24 12:23:14;;;;;;;4.60;2.67;;;;;;;23.14;43.24;100065.31;5053489;28;20064;-76
2022/05/24 12:26:13;;;;;;;14.55;5.22;;;;;;;23.46;43.10;100082.19;5059389;28;20072;-76
2022/05/24 12:28:38;;;;;;;8.68;3.17;;;;;;;22.98;42.84;100102.75;5068920;28;20071;-76
2022/05/24 12:31:13;;;;;;;7.57;3.95;;;;;;;23.24;42.25;100106.63;5064524;28;20039;-76
2022/05/24 12:33:47;;;;;;;7.65;2.17;;;;;;;23.26;42.36;100119.94;5063655;28;20031;-77
2022/05/24 12:36:18;;;;;;;8.10;2.83;;;;;;;23.03;43.44;100102.53;5064971;28;20119;-77